Pelican of London — MWAQ — position and weather

sailwx.info

Track history (hours):
 
Tides and Currents Weather Stations Pressure Air Temp Water Temp Dewpoint Dewpoint Depression Visibility Wind Speed Wind Dir Waves Ship Positions

Pelican of London

Ship's website: http://www.adventureundersail.com/

Last reported at 2018-Jun-13 09:13 UTC. Time now 2018-Jun-19 01:27 UTC.
Position N 53°20' W 006°04'.

Length 35 m; draft 3.9 m.

Type: Sailing vessel. MMSI: 235057366.

Date/timePositionNaut miles runAvg speedWind from/ knotsBaromVisibWave heightAir tempDewpointWater temp
2018-Jun-13 09:13N 53°20' W 006°04'5 8.3
2018-Jun-13 08:37N 53°15' W 006°02'1 6.8
2018-Jun-13 08:28N 53°14' W 006°02'2 4.6
2018-Jun-13 08:00N 53°12' W 006°02'2 3.9
2018-Jun-13 07:29N 53°10' W 006°03'1 1.5
2018-Jun-13 06:51N 53°09' W 006°03'0 0.0
2018-Jun-13 06:30N 53°09' W 006°03'0 0.0
2018-Jun-13 05:57N 53°09' W 006°03'0 0.0
2018-Jun-13 05:27N 53°09' W 006°03'0 0.0
2018-Jun-13 05:00N 53°09' W 006°03'0 0.0
2018-Jun-13 04:24N 53°09' W 006°03'0 0.0
2018-Jun-13 04:00N 53°09' W 006°03'0 0.0
2018-Jun-13 03:27N 53°09' W 006°03'0 0.1
2018-Jun-13 02:42N 53°09' W 006°03'0 0.0
2018-Jun-13 02:24N 53°09' W 006°03'0 0.0
2018-Jun-13 02:00N 53°09' W 006°03'0 0.0
2018-Jun-13 01:30N 53°09' W 006°03'0 0.0
2018-Jun-13 01:00N 53°09' W 006°03'0 0.0
2018-Jun-13 00:24N 53°09' W 006°03'0 0.0
2018-Jun-12 23:54N 53°09' W 006°03'0 0.0
2018-Jun-12 23:30N 53°09' W 006°03'0 0.0
2018-Jun-12 23:00N 53°09' W 006°03'0 0.0
2018-Jun-12 22:30N 53°09' W 006°03'0 0.0
2018-Jun-12 21:00N 53°09' W 006°03'0 0.0
2018-Jun-12 20:30N 53°09' W 006°03'0 0.0
2018-Jun-12 20:00N 53°09' W 006°03'0 0.0
2018-Jun-12 19:27N 53°09' W 006°03'0 0.0
2018-Jun-12 19:00N 53°09' W 006°03'1 1.4
2018-Jun-12 18:30N 53°09' W 006°02'4 8.3
2018-Jun-12 17:58N 53°06' W 005°56'4 9.4
2018-Jun-12 17:30N 53°02' W 005°54'5 9.1
2018-Jun-12 17:00N 52°58' W 005°52'4 8.6
2018-Jun-12 16:29N 52°54' W 005°48'4 7.6
2018-Jun-12 16:00N 52°51' W 005°44'3 6.5
2018-Jun-12 15:29N 52°48' W 005°43'3 4.8
2018-Jun-12 14:57N 52°46' W 005°40'2 5.6
2018-Jun-12 14:30N 52°47' W 005°36'3 6.5
2018-Jun-12 14:00N 52°48' W 005°31'3 6.7
2018-Jun-12 13:30N 52°49' W 005°26'4 0.6
2018-Jun-12 06:29N 52°48' W 005°32'26 7.7
2018-Jun-12 03:04N 52°30' W 006°04'43 3.7
2018-Jun-11 15:22N 51°49' W 006°29'11 5.0
2018-Jun-11 13:13N 51°46' W 006°46'1 4.1
2018-Jun-11 12:53N 51°45' W 006°48'2 4.0
2018-Jun-11 12:31N 51°46' W 006°50'20 2.1
2018-Jun-11 02:57N 51°41' W 007°23'6 5.1
2018-Jun-11 01:42N 51°45' W 007°31'1 4.4
2018-Jun-11 01:31N 51°46' W 007°32'2 3.4
2018-Jun-11 00:49N 51°48' W 007°33'1 3.0
2018-Jun-11 00:30N 51°49' W 007°34'2 3.1
2018-Jun-10 23:59N 51°50' W 007°36'2 4.5
2018-Jun-10 23:30N 51°50' W 007°40'3 5.7
2018-Jun-10 23:00N 51°49' W 007°44'3 5.8
2018-Jun-10 22:30N 51°49' W 007°49'3 5.9
2018-Jun-10 22:00N 51°48' W 007°53'3 6.6
2018-Jun-10 21:30N 51°48' W 007°59'3 6.6
2018-Jun-10 21:00N 51°47' W 008°04'3 6.6
2018-Jun-10 20:30N 51°46' W 008°09'3 5.4
2018-Jun-10 20:00N 51°46' W 008°13'4 7.5
2018-Jun-10 19:30N 51°50' W 008°16'3 5.2
2018-Jun-10 19:00N 51°51' W 008°20'4 7.2
2018-Jun-10 18:30N 51°54' W 008°23'  
2018-Jun-08 11:57N 51°54' W 008°28'2 4.6
2018-Jun-08 11:30N 51°54' W 008°24'3 5.7
2018-Jun-08 11:00N 51°53' W 008°20'2 4.8
2018-Jun-08 10:30N 51°51' W 008°19'2 3.5
2018-Jun-08 10:00N 51°50' W 008°16'3 5.7
2018-Jun-08 09:30N 51°47' W 008°15'3 6.0
2018-Jun-08 09:00N 51°46' W 008°10'3 6.5
2018-Jun-08 08:30N 51°47' W 008°05'4 7.1
2018-Jun-08 08:00N 51°48' W 007°60'3 6.6
2018-Jun-08 07:30N 51°50' W 007°55'1 1.2
2018-Jun-08 06:59N 51°51' W 007°55'0 0.0
2018-Jun-08 06:29N 51°51' W 007°55'0 0.0
2018-Jun-08 05:59N 51°51' W 007°55'0 0.0
2018-Jun-08 05:29N 51°51' W 007°55'0 0.0
2018-Jun-08 04:59N 51°51' W 007°55'0 0.0
2018-Jun-08 04:29N 51°51' W 007°55'0 0.0
2018-Jun-08 03:59N 51°50' W 007°55'0 0.0
2018-Jun-08 03:29N 51°50' W 007°55'0 0.0
2018-Jun-08 02:59N 51°50' W 007°55'0 0.0
2018-Jun-08 02:29N 51°50' W 007°55'0 0.0
2018-Jun-08 01:59N 51°50' W 007°55'0 0.0
2018-Jun-08 01:29N 51°50' W 007°55'0 0.0
2018-Jun-08 00:59N 51°50' W 007°55'0 0.0
2018-Jun-08 00:29N 51°51' W 007°55'0 0.0
2018-Jun-07 23:59N 51°51' W 007°55'0 0.0
2018-Jun-07 23:29N 51°51' W 007°55'0 0.0
2018-Jun-07 22:59N 51°51' W 007°55'0 0.0
2018-Jun-07 22:29N 51°51' W 007°55'0 0.0
2018-Jun-07 21:59N 51°51' W 007°55'0 0.0
2018-Jun-07 21:29N 51°51' W 007°55'0 0.0
2018-Jun-07 20:59N 51°51' W 007°55'0 0.0
2018-Jun-07 20:29N 51°51' W 007°55'0 0.0
2018-Jun-07 19:59N 51°51' W 007°55'0 0.0
2018-Jun-07 19:29N 51°51' W 007°55'0 0.0
2018-Jun-07 18:59N 51°51' W 007°55'0 0.0
2018-Jun-07 18:29N 51°51' W 007°55'0 0.0
2018-Jun-07 17:59N 51°51' W 007°55'0 0.0
2018-Jun-07 17:30N 51°51' W 007°55'0 0.0
2018-Jun-07 17:00N 51°51' W 007°55'0 0.0
2018-Jun-07 16:30N 51°51' W 007°55'0 0.0
2018-Jun-07 16:00N 51°51' W 007°55'0 0.3
2018-Jun-07 15:30N 51°50' W 007°55'1 1.8
2018-Jun-07 15:00N 51°50' W 007°53'2 3.2
2018-Jun-07 14:30N 51°48' W 007°52'1 2.4
2018-Jun-07 14:01N 51°47' W 007°52'2 4.2
2018-Jun-07 13:30N 51°49' W 007°52'1 2.8
2018-Jun-07 13:00N 51°51' W 007°51'3 5.3
2018-Jun-07 12:30N 51°49' W 007°48'3 6.0
2018-Jun-07 12:00N 51°47' W 007°44'3 6.3
2018-Jun-07 11:30N 51°45' W 007°41'3 6.6
2018-Jun-07 11:00N 51°43' W 007°37'3 5.6
2018-Jun-07 10:31N 51°41' W 007°33'2 3.9
2018-Jun-07 10:00N 51°43' W 007°34'2 4.4
2018-Jun-07 09:30N 51°45' W 007°36'3 5.3
2018-Jun-07 08:59N 51°47' W 007°39'2 4.5
2018-Jun-07 08:31N 51°49' W 007°41'2 4.7
2018-Jun-07 08:00N 51°47' W 007°38'2 4.2
2018-Jun-07 07:30N 51°47' W 007°34'2 4.2
2018-Jun-07 07:00N 51°47' W 007°31'2 3.9
2018-Jun-07 06:30N 51°48' W 007°28'2 4.0
2018-Jun-07 06:00N 51°48' W 007°25'2 4.1
2018-Jun-07 05:30N 51°49' W 007°21'2 3.8
2018-Jun-07 05:00N 51°49' W 007°18'2 4.2
2018-Jun-07 04:30N 51°49' W 007°15'2 4.4
2018-Jun-07 04:00N 51°49' W 007°11'2 4.0
2018-Jun-07 03:29N 51°50' W 007°08'3 4.0
2018-Jun-07 02:49N 51°50' W 007°04'1 4.0
2018-Jun-07 02:30N 51°50' W 007°02'2 4.2
2018-Jun-07 02:00N 51°50' W 006°58'2 4.1
2018-Jun-07 01:30N 51°51' W 006°55'2 4.2
2018-Jun-07 01:00N 51°51' W 006°52'4 4.7
2018-Jun-07 00:13N 51°51' W 006°46'1 4.5
2018-Jun-06 23:55N 51°52' W 006°44'2 4.4
2018-Jun-06 23:30N 51°52' W 006°41'2 4.4
2018-Jun-06 23:00N 51°53' W 006°37'3 5.5
2018-Jun-06 22:30N 51°53' W 006°33'3 5.9
2018-Jun-06 21:57N 51°53' W 006°28'3 6.7
2018-Jun-06 21:28N 51°53' W 006°23'5 6.5
2018-Jun-06 20:39N 51°54' W 006°14'1 6.3
2018-Jun-06 20:30N 51°54' W 006°13'5 5.2
2018-Jun-06 19:38N 51°55' W 006°05'1 4.1
2018-Jun-06 19:20N 51°55' W 006°03'2 3.7
2018-Jun-06 18:44N 51°55' W 005°60'47 2.4
2018-Jun-05 23:10N 52°41' W 005°38'4 3.3
2018-Jun-05 21:59N 52°44' W 005°41'3 4.0
2018-Jun-05 21:14N 52°47' W 005°43'2 4.6
2018-Jun-05 20:49N 52°48' W 005°45'2 4.5
2018-Jun-05 20:27N 52°50' W 005°46'2 5.0
2018-Jun-05 19:59N 52°52' W 005°46'3 5.4
2018-Jun-05 19:30N 52°55' W 005°48'3 5.4
2018-Jun-05 19:00N 52°57' W 005°49'2 4.6
2018-Jun-05 18:29N 52°60' W 005°49'2 4.6
2018-Jun-05 17:59N 53°02' W 005°50'2 4.6
2018-Jun-05 17:30N 53°04' W 005°52'2 4.6
2018-Jun-05 17:00N 53°05' W 005°55'2 3.9
2018-Jun-05 16:30N 53°07' W 005°56'2 3.6
2018-Jun-05 16:00N 53°09' W 005°57'1 2.2
2018-Jun-05 15:30N 53°10' W 005°58'1 1.4
2018-Jun-05 14:59N 53°10' W 005°58'0 1.0
2018-Jun-05 14:30N 53°11' W 005°58'0 0.9
2018-Jun-05 14:00N 53°11' W 005°58'0 1.0
2018-Jun-05 13:30N 53°12' W 005°59'1 1.1
2018-Jun-05 12:59N 53°12' W 005°59'0 0.9
2018-Jun-05 12:30N 53°13' W 005°59'0 0.9
2018-Jun-05 12:00N 53°13' W 005°60'1 1.9
2018-Jun-05 11:30N 53°14' W 006°00'1 2.2
2018-Jun-05 10:59N 53°15' W 006°02'4 1.7
2018-Jun-05 08:19N 53°18' W 006°07'0 0.0
2018-Jun-05 07:57N 53°18' W 006°07'0 0.0
2018-Jun-05 07:30N 53°18' W 006°07'0 0.0
2018-Jun-05 06:52N 53°18' W 006°07'0 0.0
2018-Jun-05 06:29N 53°18' W 006°07'0 0.0
2018-Jun-05 06:00N 53°18' W 006°07'0 0.0
2018-Jun-05 05:25N 53°18' W 006°07'0 0.0
2018-Jun-05 04:18N 53°18' W 006°07'0 0.0
2018-Jun-05 02:29N 53°18' W 006°07'0 0.0
2018-Jun-05 01:41N 53°18' W 006°07'0 0.0
2018-Jun-05 01:30N 53°18' W 006°07'0 0.0
2018-Jun-05 00:59N 53°18' W 006°07'0 0.0
2018-Jun-05 00:30N 53°18' W 006°07'0 0.0
2018-Jun-04 22:46N 53°18' W 006°07'0 0.0
2018-Jun-04 22:27N 53°18' W 006°07'0 0.0
2018-Jun-04 22:00N 53°18' W 006°07'0 0.0
2018-Jun-04 21:30N 53°18' W 006°07'0 0.0
2018-Jun-04 20:44N 53°18' W 006°07'0 0.0
2018-Jun-04 20:28N 53°18' W 006°07'0 0.0
2018-Jun-04 19:59N 53°18' W 006°07'0 0.0
2018-Jun-04 19:29N 53°18' W 006°07'0 0.0
2018-Jun-04 18:47N 53°18' W 006°07'0 0.0
2018-Jun-04 18:30N 53°18' W 006°07'0 0.0
2018-Jun-04 17:58N 53°18' W 006°07'0 0.0
2018-Jun-04 17:27N 53°18' W 006°07'0 0.0
2018-Jun-04 17:00N 53°18' W 006°07'0 0.0
2018-Jun-04 16:07N 53°18' W 006°07'0 0.0
2018-Jun-04 15:59N 53°18' W 006°07'0 0.0
2018-Jun-04 14:36N 53°18' W 006°07'0 0.1
2018-Jun-04 14:30N 53°18' W 006°07'0 0.0
2018-Jun-04 13:59N 53°18' W 006°07'0 0.2
2018-Jun-04 13:30N 53°18' W 006°07'2 3.6
2018-Jun-04 13:00N 53°19' W 006°07'1 2.1
2018-Jun-04 12:30N 53°20' W 006°08'2 3.7
2018-Jun-04 12:00N 53°21' W 006°11'  
Track history (hours):
 
Tides and Currents Weather Stations Pressure Air Temp Water Temp Dewpoint Dewpoint Depression Visibility Wind Speed Wind Dir Waves Ship Positions

Pelican of London

Ship's website: http://www.adventureundersail.com/

Last reported at 2018-Jun-13 09:13 UTC. Time now 2018-Jun-19 01:27 UTC.
Position N 53°20' W 006°04'.

Length 35 m; draft 3.9 m.

Type: Sailing vessel. MMSI: 235057366.

Date/timePositionNaut miles runAvg speedWind from/ knotsBaromVisibWave heightAir tempDewpointWater temp
2018-Jun-13 09:13N 53°20' W 006°04'5 8.3
2018-Jun-13 08:37N 53°15' W 006°02'1 6.8
2018-Jun-13 08:28N 53°14' W 006°02'2 4.6
2018-Jun-13 08:00N 53°12' W 006°02'2 3.9
2018-Jun-13 07:29N 53°10' W 006°03'1 1.5
2018-Jun-13 06:51N 53°09' W 006°03'0 0.0
2018-Jun-13 06:30N 53°09' W 006°03'0 0.0
2018-Jun-13 05:57N 53°09' W 006°03'0 0.0
2018-Jun-13 05:27N 53°09' W 006°03'0 0.0
2018-Jun-13 05:00N 53°09' W 006°03'0 0.0
2018-Jun-13 04:24N 53°09' W 006°03'0 0.0
2018-Jun-13 04:00N 53°09' W 006°03'0 0.0
2018-Jun-13 03:27N 53°09' W 006°03'0 0.1
2018-Jun-13 02:42N 53°09' W 006°03'0 0.0
2018-Jun-13 02:24N 53°09' W 006°03'0 0.0
2018-Jun-13 02:00N 53°09' W 006°03'0 0.0
2018-Jun-13 01:30N 53°09' W 006°03'0 0.0
2018-Jun-13 01:00N 53°09' W 006°03'0 0.0
2018-Jun-13 00:24N 53°09' W 006°03'0 0.0
2018-Jun-12 23:54N 53°09' W 006°03'0 0.0
2018-Jun-12 23:30N 53°09' W 006°03'0 0.0
2018-Jun-12 23:00N 53°09' W 006°03'0 0.0
2018-Jun-12 22:30N 53°09' W 006°03'0 0.0
2018-Jun-12 21:00N 53°09' W 006°03'0 0.0
2018-Jun-12 20:30N 53°09' W 006°03'0 0.0
2018-Jun-12 20:00N 53°09' W 006°03'0 0.0
2018-Jun-12 19:27N 53°09' W 006°03'0 0.0
2018-Jun-12 19:00N 53°09' W 006°03'1 1.4
2018-Jun-12 18:30N 53°09' W 006°02'4 8.3
2018-Jun-12 17:58N 53°06' W 005°56'4 9.4
2018-Jun-12 17:30N 53°02' W 005°54'5 9.1
2018-Jun-12 17:00N 52°58' W 005°52'4 8.6
2018-Jun-12 16:29N 52°54' W 005°48'4 7.6
2018-Jun-12 16:00N 52°51' W 005°44'3 6.5
2018-Jun-12 15:29N 52°48' W 005°43'3 4.8
2018-Jun-12 14:57N 52°46' W 005°40'2 5.6
2018-Jun-12 14:30N 52°47' W 005°36'3 6.5
2018-Jun-12 14:00N 52°48' W 005°31'3 6.7
2018-Jun-12 13:30N 52°49' W 005°26'4 0.6
2018-Jun-12 06:29N 52°48' W 005°32'26 7.7
2018-Jun-12 03:04N 52°30' W 006°04'43 3.7
2018-Jun-11 15:22N 51°49' W 006°29'11 5.0
2018-Jun-11 13:13N 51°46' W 006°46'1 4.1
2018-Jun-11 12:53N 51°45' W 006°48'2 4.0
2018-Jun-11 12:31N 51°46' W 006°50'20 2.1
2018-Jun-11 02:57N 51°41' W 007°23'6 5.1
2018-Jun-11 01:42N 51°45' W 007°31'1 4.4
2018-Jun-11 01:31N 51°46' W 007°32'2 3.4
2018-Jun-11 00:49N 51°48' W 007°33'1 3.0
2018-Jun-11 00:30N 51°49' W 007°34'2 3.1
2018-Jun-10 23:59N 51°50' W 007°36'2 4.5
2018-Jun-10 23:30N 51°50' W 007°40'3 5.7
2018-Jun-10 23:00N 51°49' W 007°44'3 5.8
2018-Jun-10 22:30N 51°49' W 007°49'3 5.9
2018-Jun-10 22:00N 51°48' W 007°53'3 6.6
2018-Jun-10 21:30N 51°48' W 007°59'3 6.6
2018-Jun-10 21:00N 51°47' W 008°04'3 6.6
2018-Jun-10 20:30N 51°46' W 008°09'3 5.4
2018-Jun-10 20:00N 51°46' W 008°13'4 7.5
2018-Jun-10 19:30N 51°50' W 008°16'3 5.2
2018-Jun-10 19:00N 51°51' W 008°20'4 7.2
2018-Jun-10 18:30N 51°54' W 008°23'  
2018-Jun-08 11:57N 51°54' W 008°28'2 4.6
2018-Jun-08 11:30N 51°54' W 008°24'3 5.7
2018-Jun-08 11:00N 51°53' W 008°20'2 4.8
2018-Jun-08 10:30N 51°51' W 008°19'2 3.5
2018-Jun-08 10:00N 51°50' W 008°16'3 5.7
2018-Jun-08 09:30N 51°47' W 008°15'3 6.0
2018-Jun-08 09:00N 51°46' W 008°10'3 6.5
2018-Jun-08 08:30N 51°47' W 008°05'4 7.1
2018-Jun-08 08:00N 51°48' W 007°60'3 6.6
2018-Jun-08 07:30N 51°50' W 007°55'1 1.2
2018-Jun-08 06:59N 51°51' W 007°55'0 0.0
2018-Jun-08 06:29N 51°51' W 007°55'0 0.0
2018-Jun-08 05:59N 51°51' W 007°55'0 0.0
2018-Jun-08 05:29N 51°51' W 007°55'0 0.0
2018-Jun-08 04:59N 51°51' W 007°55'0 0.0
2018-Jun-08 04:29N 51°51' W 007°55'0 0.0
2018-Jun-08 03:59N 51°50' W 007°55'0 0.0
2018-Jun-08 03:29N 51°50' W 007°55'0 0.0
2018-Jun-08 02:59N 51°50' W 007°55'0 0.0
2018-Jun-08 02:29N 51°50' W 007°55'0 0.0
2018-Jun-08 01:59N 51°50' W 007°55'0 0.0
2018-Jun-08 01:29N 51°50' W 007°55'0 0.0
2018-Jun-08 00:59N 51°50' W 007°55'0 0.0
2018-Jun-08 00:29N 51°51' W 007°55'0 0.0
2018-Jun-07 23:59N 51°51' W 007°55'0 0.0
2018-Jun-07 23:29N 51°51' W 007°55'0 0.0
2018-Jun-07 22:59N 51°51' W 007°55'0 0.0
2018-Jun-07 22:29N 51°51' W 007°55'0 0.0
2018-Jun-07 21:59N 51°51' W 007°55'0 0.0
2018-Jun-07 21:29N 51°51' W 007°55'0 0.0
2018-Jun-07 20:59N 51°51' W 007°55'0 0.0
2018-Jun-07 20:29N 51°51' W 007°55'0 0.0
2018-Jun-07 19:59N 51°51' W 007°55'0 0.0
2018-Jun-07 19:29N 51°51' W 007°55'0 0.0
2018-Jun-07 18:59N 51°51' W 007°55'0 0.0
2018-Jun-07 18:29N 51°51' W 007°55'0 0.0
2018-Jun-07 17:59N 51°51' W 007°55'0 0.0
2018-Jun-07 17:30N 51°51' W 007°55'0 0.0
2018-Jun-07 17:00N 51°51' W 007°55'0 0.0
2018-Jun-07 16:30N 51°51' W 007°55'0 0.0
2018-Jun-07 16:00N 51°51' W 007°55'0 0.3
2018-Jun-07 15:30N 51°50' W 007°55'1 1.8
2018-Jun-07 15:00N 51°50' W 007°53'2 3.2
2018-Jun-07 14:30N 51°48' W 007°52'1 2.4
2018-Jun-07 14:01N 51°47' W 007°52'2 4.2
2018-Jun-07 13:30N 51°49' W 007°52'1 2.8
2018-Jun-07 13:00N 51°51' W 007°51'3 5.3
2018-Jun-07 12:30N 51°49' W 007°48'3 6.0
2018-Jun-07 12:00N 51°47' W 007°44'3 6.3
2018-Jun-07 11:30N 51°45' W 007°41'3 6.6
2018-Jun-07 11:00N 51°43' W 007°37'3 5.6
2018-Jun-07 10:31N 51°41' W 007°33'2 3.9
2018-Jun-07 10:00N 51°43' W 007°34'2 4.4
2018-Jun-07 09:30N 51°45' W 007°36'3 5.3
2018-Jun-07 08:59N 51°47' W 007°39'2 4.5
2018-Jun-07 08:31N 51°49' W 007°41'2 4.7
2018-Jun-07 08:00N 51°47' W 007°38'2 4.2
2018-Jun-07 07:30N 51°47' W 007°34'2 4.2
2018-Jun-07 07:00N 51°47' W 007°31'2 3.9
2018-Jun-07 06:30N 51°48' W 007°28'2 4.0
2018-Jun-07 06:00N 51°48' W 007°25'2 4.1
2018-Jun-07 05:30N 51°49' W 007°21'2 3.8
2018-Jun-07 05:00N 51°49' W 007°18'2 4.2
2018-Jun-07 04:30N 51°49' W 007°15'2 4.4
2018-Jun-07 04:00N 51°49' W 007°11'2 4.0
2018-Jun-07 03:29N 51°50' W 007°08'3 4.0
2018-Jun-07 02:49N 51°50' W 007°04'1 4.0
2018-Jun-07 02:30N 51°50' W 007°02'2 4.2
2018-Jun-07 02:00N 51°50' W 006°58'2 4.1
2018-Jun-07 01:30N 51°51' W 006°55'2 4.2
2018-Jun-07 01:00N 51°51' W 006°52'4 4.7
2018-Jun-07 00:13N 51°51' W 006°46'1 4.5
2018-Jun-06 23:55N 51°52' W 006°44'2 4.4
2018-Jun-06 23:30N 51°52' W 006°41'2 4.4
2018-Jun-06 23:00N 51°53' W 006°37'3 5.5
2018-Jun-06 22:30N 51°53' W 006°33'3 5.9
2018-Jun-06 21:57N 51°53' W 006°28'3 6.7
2018-Jun-06 21:28N 51°53' W 006°23'5 6.5
2018-Jun-06 20:39N 51°54' W 006°14'1 6.3
2018-Jun-06 20:30N 51°54' W 006°13'5 5.2
2018-Jun-06 19:38N 51°55' W 006°05'1 4.1
2018-Jun-06 19:20N 51°55' W 006°03'2 3.7
2018-Jun-06 18:44N 51°55' W 005°60'47 2.4
2018-Jun-05 23:10N 52°41' W 005°38'4 3.3
2018-Jun-05 21:59N 52°44' W 005°41'3 4.0
2018-Jun-05 21:14N 52°47' W 005°43'2 4.6
2018-Jun-05 20:49N 52°48' W 005°45'2 4.5
2018-Jun-05 20:27N 52°50' W 005°46'2 5.0
2018-Jun-05 19:59N 52°52' W 005°46'3 5.4
2018-Jun-05 19:30N 52°55' W 005°48'3 5.4
2018-Jun-05 19:00N 52°57' W 005°49'2 4.6
2018-Jun-05 18:29N 52°60' W 005°49'2 4.6
2018-Jun-05 17:59N 53°02' W 005°50'2 4.6
2018-Jun-05 17:30N 53°04' W 005°52'2 4.6
2018-Jun-05 17:00N 53°05' W 005°55'2 3.9
2018-Jun-05 16:30N 53°07' W 005°56'2 3.6
2018-Jun-05 16:00N 53°09' W 005°57'1 2.2
2018-Jun-05 15:30N 53°10' W 005°58'1 1.4
2018-Jun-05 14:59N 53°10' W 005°58'0 1.0
2018-Jun-05 14:30N 53°11' W 005°58'0 0.9
2018-Jun-05 14:00N 53°11' W 005°58'0 1.0
2018-Jun-05 13:30N 53°12' W 005°59'1 1.1
2018-Jun-05 12:59N 53°12' W 005°59'0 0.9
2018-Jun-05 12:30N 53°13' W 005°59'0 0.9
2018-Jun-05 12:00N 53°13' W 005°60'1 1.9
2018-Jun-05 11:30N 53°14' W 006°00'1 2.2
2018-Jun-05 10:59N 53°15' W 006°02'4 1.7
2018-Jun-05 08:19N 53°18' W 006°07'0 0.0
2018-Jun-05 07:57N 53°18' W 006°07'0 0.0
2018-Jun-05 07:30N 53°18' W 006°07'0 0.0
2018-Jun-05 06:52N 53°18' W 006°07'0 0.0
2018-Jun-05 06:29N 53°18' W 006°07'0 0.0
2018-Jun-05 06:00N 53°18' W 006°07'0 0.0
2018-Jun-05 05:25N 53°18' W 006°07'0 0.0
2018-Jun-05 04:18N 53°18' W 006°07'0 0.0
2018-Jun-05 02:29N 53°18' W 006°07'0 0.0
2018-Jun-05 01:41N 53°18' W 006°07'0 0.0
2018-Jun-05 01:30N 53°18' W 006°07'0 0.0
2018-Jun-05 00:59N 53°18' W 006°07'0 0.0
2018-Jun-05 00:30N 53°18' W 006°07'0 0.0
2018-Jun-04 22:46N 53°18' W 006°07'0 0.0
2018-Jun-04 22:27N 53°18' W 006°07'0 0.0
2018-Jun-04 22:00N 53°18' W 006°07'0 0.0
2018-Jun-04 21:30N 53°18' W 006°07'0 0.0
2018-Jun-04 20:44N 53°18' W 006°07'0 0.0
2018-Jun-04 20:28N 53°18' W 006°07'0 0.0
2018-Jun-04 19:59N 53°18' W 006°07'0 0.0
2018-Jun-04 19:29N 53°18' W 006°07'0 0.0
2018-Jun-04 18:47N 53°18' W 006°07'0 0.0
2018-Jun-04 18:30N 53°18' W 006°07'0 0.0
2018-Jun-04 17:58N 53°18' W 006°07'0 0.0
2018-Jun-04 17:27N 53°18' W 006°07'0 0.0
2018-Jun-04 17:00N 53°18' W 006°07'0 0.0
2018-Jun-04 16:07N 53°18' W 006°07'0 0.0
2018-Jun-04 15:59N 53°18' W 006°07'0 0.0
2018-Jun-04 14:36N 53°18' W 006°07'0 0.1
2018-Jun-04 14:30N 53°18' W 006°07'0 0.0
2018-Jun-04 13:59N 53°18' W 006°07'0 0.2
2018-Jun-04 13:30N 53°18' W 006°07'2 3.6
2018-Jun-04 13:00N 53°19' W 006°07'1 2.1
2018-Jun-04 12:30N 53°20' W 006°08'2 3.7
2018-Jun-04 12:00N 53°21' W 006°11'  

Dump ship's entire track history